x

South Hatteras - 225 South Of Cape Hatteras (41002) Weather Station

8:50 - Mon 29th Dec 2014 All times are EST. -5 hours from GMT.

  • Wind
    20mph, 25mph gusts
  • Sea Temp 75°f
  • Luft Temp 74°f
  • Sea Pressure 1020.5mb
  • South Hatteras - 225 South Of Cape Hatteras
  • South Hatteras - 225 South Of Cape Hatteras

More Historic Weather Station data

Upgrade to MSW Pro to gain access to the past 30 days of data for over 8000 Wavebouys and Weather Stations around the globe.

Join Pro

Comparision Forecast

View Surf forecast
   
Mo 12/29 8:50  -   -   -  20 25 mph 1020.5mb 75f 74f
7:50 4ft 13s 5s 18 22 mph 1019.6mb 75f 74f
6:50 4ft 12s 5s 18 20 mph 1019.4mb 74f 74f
5:50 4ft 13s 5s 16 18 mph 1019.5mb 74f 74f
4:50 4ft 13s 5s 13 18 mph 1019.3mb 74f 71f
3:50 4ft 13s 5s 16 20 mph 1019.3mb 74f 74f
2:50 4ft 14s 5s 16 18 mph 1019.8mb 74f 73f
1:50 4.5ft 11s 5s 18 22 mph 1019.8mb 74f 73f
12:50 4ft 13s 5s 20 22 mph 1019.8mb 74f 74f
So 12/28 11:50 4.5ft 13s 5s 20 25 mph 1020.1mb 74f 74f
10:50 4.5ft 11s 5s 22 27 mph 1020.4mb 74f 74f
9:50 4.5ft 13s 5s 20 25 mph 1020.7mb 74f 74f
8:50 5ft 12s 5s 20 22 mph 1020.7mb 74f 74f
7:50 5ft 13s 5s 18 22 mph 1021mb 74f 74f
6:50 5ft 14s 5s 18 20 mph 1021mb 74f 74f
5:50 5ft 14s 5s 18 22 mph 1020.5mb 74f 74f
4:50 5.5ft 14s 6s 20 25 mph 1020.1mb 75f 74f
3:50 5ft 13s 5s 22 27 mph 1019.7mb 75f 74f
2:50 5ft 13s 6s 20 25 mph 1019.4mb 75f 74f
1:50 5ft 15s 6s 20 25 mph 1019.6mb 75f 74f
12:50 5ft 14s 5s 22 25 mph 1019.9mb 75f 73f
11:50 5ft 14s 6s 20 25 mph 1021mb 75f 74f
10:50 5ft 14s 6s 18 22 mph 1022.2mb 75f 73f
9:50 5ft 13s 6s 18 25 mph 1022.7mb 75f 73f
8:50 5ft 14s 6s 20 22 mph 1022.4mb 74f 73f
7:50 5.5ft 14s 7s 18 20 mph 1022.7mb 74f 72f
6:50 4.5ft 15s 8s 16 20 mph 1022.4mb 74f 72f
5:50 4.5ft 15s 7s 13 16 mph 1022.3mb 74f 72f
4:50 5ft 14s 8s 13 16 mph 1022.1mb 74f 71f
3:50 5ft 15s 8s 11 13 mph 1022.6mb 74f 71f
2:50 5ft 15s 9s 11 13 mph 1023.2mb 74f 71f
1:50 5ft 15s 9s 11 13 mph 1023.5mb 74f 71f
12:50 5ft 15s 9s 9 11 mph 1023.7mb 74f 70f
Sa 12/27 11:50 5ft 15s 10s 11 16 mph 1024.4mb 74f 70f
10:50 5ft 15s 10s 7 9 mph 1025.5mb 74f 70f
9:50 5.5ft 16s 10s 7 9 mph 1025.8mb 74f 70f
8:50 5ft 15s 10s 9 13 mph 1025.8mb 74f 69f
7:50 5ft 15s 10s 9 11 mph 1025.7mb 74f 69f
6:50 4.5ft 15s 8s 11 13 mph 1025.6mb 74f 69f
5:50 4.5ft 15s 9s 11 16 mph 1025.4mb 74f 69f
4:50 5ft 15s 9s 9 13 mph 1025.2mb 74f 69f
3:50 4.5ft 16s 9s 11 16 mph 1024.7mb 74f 69f
2:50 4.5ft 16s 9s 7 11 mph 1025mb 74f 69f
1:50 4.5ft 16s 8s 4 9 mph 1025.2mb 74f 69f
12:50 4ft 16s 8s 7 11 mph 1025.8mb 74f 69f
11:50 3.5ft 16s 7s 9 11 mph 1026.5mb 74f 69f
10:50 4ft 17s 8s 9 13 mph 1027.6mb 74f 69f
9:50 3.5ft 17s 7s 9 11 mph 1027.8mb 74f 69f
8:50 3.5ft 11s 7s 13 16 mph 1027mb 74f 69f
7:50 3.5ft 17s 7s 11 16 mph 1026.4mb 74f 68f
5:50 3.5ft 12s 7s 9 13 mph 1025.1mb 74f 68f
4:50 3ft 13s 6s 4 9 mph 1025.1mb 74f 68f
3:50 3.5ft 12s 7s 7 11 mph 1024.8mb 74f 67f
2:50 3.5ft 12s 6s 7 11 mph 1025.2mb 74f 67f
1:50 3.5ft 13s 6s 7 11 mph 1025.5mb 74f 67f
12:50 3.5ft 8s 6s 9 11 mph 1025.4mb 74f 67f
Fr 12/26 11:50 3.5ft 12s 6s 9 13 mph 1026mb 74f 67f
10:50 3.5ft 13s 6s 11 13 mph 1026.2mb 74f 67f
9:50 3ft 8s 6s 9 13 mph 1026.2mb 74f 67f
8:50  -   -   -  7 11 mph 1026.4mb 74f 67f
7:50 3ft 6s 6s 7 9 mph 1025.8mb 74f 67f
6:50 3ft 9s 6s 7 11 mph 1025.9mb 74f 67f
5:50 3.5ft 9s 6s 7 11 mph 1025.7mb 74f 67f
4:50 3ft 9s 6s 7 9 mph 1025.2mb 74f 67f
3:50 3.5ft 6s 5s 9 11 mph 1024.5mb 74f 68f
2:50 3.5ft 7s 5s 9 11 mph 1024.5mb 74f 68f
1:50 3.5ft 7s 5s 9 13 mph 1024.1mb 74f 67f
12:50 3.5ft 6s 5s 7 11 mph 1024.7mb 74f 67f
11:50 3.5ft 6s 5s 9 11 mph 1025.1mb 74f 68f
10:50 3.5ft 6s 5s 11 13 mph 1025.7mb 73f 68f
9:50 4ft 6s 6s 9 13 mph 1025.9mb 71f 68f
8:50 4.5ft 6s 6s 11 16 mph 1025.2mb 71f 68f
7:50 5ft 7s 6s 11 16 mph 1024.5mb 71f 68f
6:50 5ft 7s 6s 9 13 mph 1024.1mb 71f 68f
5:50 5.5ft 7s 6s 11 16 mph 1023.7mb 71f 67f
4:50 6ft 7s 6s 11 13 mph 1023.4mb 72f 67f
3:50 6ft 8s 6s 11 16 mph 1023.4mb 72f 67f
2:50 5.5ft 8s 6s 11 13 mph 1023.5mb 73f 67f
1:50 6ft 8s 6s 11 13 mph 1023.3mb 74f 68f
12:50 6.5ft 8s 6s 11 16 mph 1022.8mb 74f 68f
Do 12/25 11:50 7ft 8s 6s 11 16 mph 1022.7mb 74f 68f
10:50 7.5ft 7s 6s 11 16 mph 1022.8mb 74f 68f
9:50 8ft 8s 7s 13 18 mph 1022.3mb 74f 69f
8:50 8ft 8s 7s 16 20 mph 1021.8mb 74f 69f
7:50 8ft 8s 7s 18 22 mph 1021.2mb 75f 69f
6:50 8.5ft 8s 7s 18 22 mph 1020.9mb 75f 70f
5:50 8ft 8s 6s 18 25 mph 1020.3mb 75f 70f
4:50 8.5ft 8s 6s 16 22 mph 1019.6mb 75f 70f
3:50 8.5ft 7s 6s 18 22 mph 1019.1mb 75f 71f